Time;durP1;ratioP1;P1;durP2;ratioP2;P2;SDS_P1;SDS_P2;PMS_P1;PMS_P2;Temp;Humidity;BMP_temperature;BMP_pressure;BME280_temperature;BME280_humidity;BME280_pressure;Samples;Min_cycle;Max_cycle;Signal;HPM_P1;HPM_P2
2021/06/28 00:01:47;;;;;;;13.90;9.55;;;20.50;95.20;;;19.86;88.51;100355.84;4931126;29;20583;-84
2021/06/28 00:04:16;;;;;;;13.25;9.15;;;20.50;95.20;;;19.85;88.27;100348.66;4929682;29;20056;-84
2021/06/28 00:06:43;;;;;;;14.50;9.32;;;20.40;95.20;;;19.86;88.62;100353.09;4930738;29;20508;-84
2021/06/28 00:09:10;;;;;;;15.15;9.13;;;20.40;95.30;;;19.84;88.62;100344.22;4929487;29;20102;-84
2021/06/28 00:11:37;;;;;;;12.48;9.05;;;20.40;95.40;;;19.83;88.73;100348.06;4930853;29;20052;-84
2021/06/28 00:14:05;;;;;;;14.82;9.18;;;20.40;95.40;;;19.82;88.61;100343.63;4932754;29;20095;-83
2021/06/28 00:16:32;;;;;;;14.27;9.65;;;20.40;95.30;;;19.81;88.43;100343.88;4933982;29;20130;-84
2021/06/28 00:19:02;;;;;;;12.63;9.55;;;20.40;95.20;;;19.78;88.57;100345.22;4934406;29;20087;-84
2021/06/28 00:21:31;;;;;;;12.82;9.30;;;20.30;95.30;;;19.77;88.48;100351.81;4934250;29;20139;-84
2021/06/28 00:23:58;;;;;;;13.93;8.85;;;20.30;95.30;;;19.77;88.43;100343.53;4934389;29;20075;-84
2021/06/28 00:26:25;;;;;;;12.48;9.68;;;20.30;95.20;;;19.76;88.14;100336.34;4933978;29;20079;-84
2021/06/28 00:28:53;;;;;;;13.98;9.30;;;20.30;95.10;;;19.76;87.91;100338.25;4934102;29;20464;-84
2021/06/28 00:31:20;;;;;;;12.23;8.80;;;20.20;95.00;;;19.74;87.87;100341.28;4934065;29;20039;-84
2021/06/28 00:33:47;;;;;;;12.88;9.05;;;20.20;95.00;;;19.74;87.71;100338.50;4933959;29;20047;-84
2021/06/28 00:36:15;;;;;;;12.40;8.90;;;20.20;94.90;;;19.72;87.63;100340.69;4933791;29;20055;-84
2021/06/28 00:38:43;;;;;;;14.23;9.07;;;20.20;94.90;;;19.72;87.60;100333.25;4933695;29;20123;-84
2021/06/28 00:41:11;;;;;;;14.00;9.88;;;20.10;95.10;;;19.69;87.69;100328.19;4933935;29;20119;-84
2021/06/28 00:43:38;;;;;;;12.90;8.68;;;20.10;95.10;;;19.69;87.65;100324.59;4931994;29;20047;-84
2021/06/28 00:46:06;;;;;;;13.93;9.15;;;20.10;95.20;;;19.68;87.39;100322.91;4932046;29;20417;-84
2021/06/28 00:48:33;;;;;;;16.58;9.48;;;20.00;95.10;;;19.65;87.44;100317.91;4932946;29;20079;-84
2021/06/28 00:51:00;;;;;;;11.23;9.05;;;20.00;95.10;;;19.63;87.42;100320.06;4933691;29;20131;-84
2021/06/28 00:53:27;;;;;;;14.27;8.65;;;20.00;95.10;;;19.61;87.39;100316.72;4932418;29;20051;-84
2021/06/28 00:56:08;;;;;;;11.13;8.75;;;20.00;95.10;;;19.59;87.08;100314.22;4933435;29;20079;-84
2021/06/28 00:58:38;;;;;;;14.60;8.70;;;19.90;95.00;;;19.56;87.09;100316.66;4933556;29;20094;-84
2021/06/28 01:01:05;;;;;;;15.43;9.38;;;19.90;95.00;;;19.53;87.06;100320.72;4933371;29;20047;-84
2021/06/28 01:03:32;;;;;;;12.55;9.52;;;19.90;95.20;;;19.52;86.94;100322.66;4933524;29;20047;-85
2021/06/28 01:06:00;;;;;;;13.88;9.35;;;19.90;95.10;;;19.53;86.90;100317.97;4933262;29;20107;-84
2021/06/28 01:08:27;;;;;;;15.45;10.13;;;19.80;95.10;;;19.50;86.87;100311.03;4933243;29;20044;-84
2021/06/28 01:10:56;;;;;;;14.90;9.90;;;19.80;95.20;;;19.49;87.02;100309.34;4933446;29;20130;-84
2021/06/28 01:13:25;;;;;;;15.80;9.95;;;19.80;95.40;;;19.50;87.11;100315.72;4933146;29;20082;-84
2021/06/28 01:15:54;;;;;;;14.70;9.75;;;19.80;95.50;;;19.48;87.06;100313.19;4933194;29;20122;-84
2021/06/28 01:18:22;;;;;;;18.98;10.75;;;19.80;95.50;;;19.46;86.97;100312.63;4932807;29;20048;-84
2021/06/28 01:20:50;;;;;;;15.98;10.05;;;19.80;95.60;;;19.46;87.25;100315.38;4931899;29;20103;-84
2021/06/28 01:23:22;;;;;;;12.68;9.65;;;19.80;95.60;;;19.46;87.29;100314.53;4932799;29;20055;-84
2021/06/28 01:25:54;;;;;;;15.80;10.27;;;19.80;95.60;;;19.44;87.41;100306.50;4931465;29;20052;-85
2021/06/28 01:28:22;;;;;;;13.77;10.18;;;19.80;95.70;;;19.44;87.44;100306.50;4914131;29;20044;-84
2021/06/28 01:30:52;;;;;;;12.40;9.73;;;19.80;95.80;;;19.43;87.23;100306.75;4913806;29;20666;-84
2021/06/28 01:33:19;;;;;;;14.73;10.85;;;19.80;95.50;;;19.42;87.08;100308.69;4913940;29;20052;-84
2021/06/28 01:35:47;;;;;;;13.18;9.60;;;19.80;95.30;;;19.39;86.97;100300.88;4913685;29;20056;-84
2021/06/28 01:38:15;;;;;;;13.10;9.32;;;19.70;95.40;;;19.39;86.89;100305.56;4913880;29;20040;-84
2021/06/28 01:40:45;;;;;;;14.88;9.98;;;19.70;95.40;;;19.38;87.00;100301.13;4913638;29;20664;-84
2021/06/28 01:43:13;;;;;;;13.32;9.23;;;19.70;95.50;;;19.34;86.77;100296.13;4931451;29;20035;-84
2021/06/28 01:45:42;;;;;;;13.73;9.82;;;19.70;95.20;;;19.34;86.57;100298.03;4931086;29;20595;-84
2021/06/28 01:48:09;;;;;;;15.95;10.23;;;19.60;95.20;;;19.34;86.49;100295.25;4962824;23;20038;-78
2021/06/28 01:50:39;;;;;;;12.45;9.75;;;19.60;95.10;;;19.32;86.77;100286.41;4990474;28;20054;-79
2021/06/28 01:53:08;;;;;;;11.95;9.07;;;19.60;95.20;;;19.31;86.68;100290.25;4990411;28;20074;-79
2021/06/28 01:55:37;;;;;;;12.43;9.95;;;19.60;95.30;;;19.28;86.50;100297.09;4990505;28;20466;-79
2021/06/28 01:58:09;;;;;;;12.02;9.43;;;19.60;95.30;;;19.28;86.37;100310.06;4989751;28;20049;-78
2021/06/28 02:00:40;;;;;;;13.18;10.57;;;19.60;95.30;;;19.26;86.42;100315.00;4989330;28;20507;-79
2021/06/28 02:03:10;;;;;;;12.70;9.88;;;19.50;95.30;;;19.24;86.27;100308.88;4990134;28;20116;-78
2021/06/28 02:05:42;;;;;;;12.40;9.63;;;19.50;95.20;;;19.20;86.52;100304.94;4990159;28;20039;-78
2021/06/28 02:08:12;;;;;;;14.27;9.60;;;19.50;95.30;;;19.19;86.22;100306.03;4989886;28;20042;-79
2021/06/28 02:10:45;;;;;;;14.10;10.40;;;19.40;95.20;;;19.18;86.05;100307.13;4990244;28;20093;-78
2021/06/28 02:13:14;;;;;;;14.23;10.60;;;19.40;95.40;;;19.17;86.16;100310.94;4990271;28;20046;-78
2021/06/28 02:15:41;;;;;;;13.27;9.73;;;19.40;95.30;;;19.14;85.94;100312.28;4990068;28;20108;-79
2021/06/28 02:18:09;;;;;;;11.80;9.50;;;19.30;95.10;;;19.12;85.96;100315.28;4989881;28;20042;-78
2021/06/28 02:20:36;;;;;;;12.50;9.48;;;19.30;95.30;;;19.12;85.91;100315.28;4989268;28;20050;-78
2021/06/28 02:23:26;;;;;;;13.07;9.43;;;19.30;95.20;;;19.10;85.70;100309.19;4989751;28;20050;-78
2021/06/28 02:25:57;;;;;;;10.65;8.68;;;19.30;95.20;;;19.09;85.70;100309.41;4989610;28;20050;-78
2021/06/28 02:28:29;;;;;;;14.65;9.00;;;19.30;95.20;;;19.07;85.82;100301.38;4989978;28;20093;-78
2021/06/28 02:30:57;;;;;;;12.25;9.48;;;19.30;95.30;;;19.06;85.96;100302.50;4989784;28;20077;-78
2021/06/28 02:33:25;;;;;;;12.32;8.88;;;19.30;95.60;;;19.05;85.66;100297.22;4989836;28;20054;-78
2021/06/28 02:35:53;;;;;;;12.85;9.65;;;19.30;95.40;;;19.05;85.88;100302.72;4989776;28;20129;-78
2021/06/28 02:38:21;;;;;;;12.45;9.18;;;19.20;95.40;;;19.03;85.77;100293.88;4988717;28;20078;-78
2021/06/28 02:40:49;;;;;;;15.40;10.00;;;19.20;95.40;;;19.01;85.84;100296.88;4989858;28;20049;-79
2021/06/28 02:43:17;;;;;;;13.43;9.93;;;19.20;95.50;;;19.02;85.66;100286.66;4989731;28;20104;-78
2021/06/28 02:45:46;;;;;;;22.00;10.80;;;19.20;95.40;;;19.00;85.76;100295.22;4989687;28;20130;-78
2021/06/28 02:48:13;;;;;;;13.75;10.27;;;19.20;95.40;;;19.00;85.70;100289.69;4989211;28;20046;-78
2021/06/28 02:50:40;;;;;;;13.38;10.55;;;19.20;95.50;;;19.01;86.01;100290.50;4989663;28;20078;-78
2021/06/28 02:53:09;;;;;;;12.05;9.68;;;19.20;95.60;;;18.98;85.68;100294.59;4989546;28;20069;-78
2021/06/28 02:55:36;;;;;;;12.75;9.13;;;19.20;95.40;;;18.95;85.67;100295.09;4989678;28;20086;-78
2021/06/28 02:58:04;;;;;;;14.43;9.82;;;19.20;95.30;;;18.93;85.76;100297.25;4989304;28;20121;-78
2021/06/28 03:00:32;;;;;;;14.07;9.82;;;19.10;95.40;;;18.92;85.79;100299.19;4989255;28;20133;-78
2021/06/28 03:03:00;;;;;;;14.40;10.55;;;19.10;95.40;;;18.92;85.36;100309.34;4989680;28;20046;-78
2021/06/28 03:05:28;;;;;;;15.07;10.15;;;19.10;95.30;;;18.91;85.42;100311.28;4989395;28;20116;-78
2021/06/28 03:07:55;;;;;;;12.30;9.85;;;19.10;95.30;;;18.90;85.31;100311.53;4989214;28;20451;-78
2021/06/28 03:10:23;;;;;;;12.43;9.75;;;19.10;95.20;;;18.88;85.28;100305.44;4989301;28;20093;-79
2021/06/28 03:12:51;;;;;;;13.50;10.02;;;19.00;95.00;;;18.86;84.98;100304.84;4989330;28;20070;-78
2021/06/28 03:15:22;;;;;;;14.95;9.73;;;19.00;94.90;;;18.84;85.14;100313.34;4989479;28;20050;-78
2021/06/28 03:17:49;;;;;;;20.47;9.40;;;19.00;95.00;;;18.82;84.96;100303.66;4989106;28;20054;-78
2021/06/28 03:20:19;;;;;;;12.98;9.35;;;19.00;94.90;;;18.83;85.34;100302.56;4982008;28;20070;-78
2021/06/28 03:22:47;;;;;;;12.60;9.80;;;19.00;95.10;;;18.82;85.17;100298.97;4969879;28;20135;-78
2021/06/28 03:25:19;;;;;;;11.35;9.15;;;18.90;95.20;;;18.81;84.97;100299.19;4970053;28;20661;-78
2021/06/28 03:27:46;;;;;;;;;;;19.00;95.10;;;18.80;85.17;100303.03;4969930;28;20161;-78
2021/06/28 03:30:17;;;;;;;13.32;10.07;;;19.00;95.30;;;18.79;85.17;100293.06;4969947;28;19926;-78
2021/06/28 03:32:45;;;;;;;13.85;9.13;;;19.00;95.30;;;18.77;85.06;100298.81;4969831;28;20103;-78
2021/06/28 03:35:14;;;;;;;11.60;8.93;;;19.00;95.20;;;18.76;85.06;100298.00;4969886;28;20823;-78
2021/06/28 03:37:43;;;;;;;13.40;9.25;;;19.00;95.30;;;18.75;85.14;100304.59;4969493;28;20055;-78
2021/06/28 03:40:12;;;;;;;11.90;9.40;;;19.00;95.20;;;18.74;85.17;100308.44;4969455;28;20049;-78
2021/06/28 03:42:40;;;;;;;17.05;9.32;;;19.00;95.00;;;18.74;85.07;100308.44;4969764;28;20043;-78
2021/06/28 03:45:14;;;;;;;16.05;10.63;;;19.00;95.10;;;18.73;85.16;100306.78;4969677;28;20058;-78
2021/06/28 03:47:42;;;;;;;11.98;9.60;;;19.00;95.00;;;18.73;85.14;100309.53;4969441;28;20117;-79
2021/06/28 03:50:13;;;;;;;14.30;9.82;;;19.00;94.90;;;18.72;85.37;100310.59;4971870;28;20050;-78
2021/06/28 03:52:42;;;;;;;13.70;9.60;;;19.00;95.20;;;18.74;85.25;100313.94;4973515;28;20042;-79
2021/06/28 03:55:10;;;;;;;12.32;9.55;;;19.00;95.00;;;18.73;85.15;100311.44;4973329;28;20567;-78
2021/06/28 03:57:38;;;;;;;12.23;9.65;;;19.10;95.00;;;18.73;85.21;100306.78;4973070;28;20133;-78
2021/06/28 04:00:10;;;;;;;10.23;7.93;;;19.10;94.90;;;18.72;85.46;100305.09;4973371;28;20130;-78
2021/06/28 04:02:40;;;;;;;11.50;8.82;;;19.00;94.60;;;18.73;85.07;100301.25;4973333;28;20054;-78
2021/06/28 04:05:09;;;;;;;13.30;9.93;;;19.00;94.60;;;18.73;85.47;100306.78;4973409;28;20508;-78
2021/06/28 04:07:36;;;;;;;12.20;9.02;;;19.10;94.80;;;18.73;85.59;100303.16;4972777;28;20451;-78
2021/06/28 04:10:07;;;;;;;14.60;10.23;;;19.10;94.70;;;18.74;85.31;100308.44;4973360;28;20054;-79
2021/06/28 04:12:34;;;;;;;16.55;10.63;;;19.10;94.60;;;18.75;85.31;100304.59;4972916;28;20047;-80
2021/06/28 04:15:02;;;;;;;20.08;10.57;;;19.20;94.60;;;18.78;85.45;100303.28;4973200;28;20069;-77
2021/06/28 04:17:29;;;;;;;12.98;9.93;;;19.20;94.70;;;18.77;85.77;100304.34;4972512;28;20101;-77
2021/06/28 04:19:57;;;;;;;13.88;10.30;;;19.30;94.60;;;18.79;85.97;100306.84;4973016;28;20039;-78
2021/06/28 04:22:24;;;;;;;14.52;9.32;;;19.30;94.50;;;18.80;85.88;100303.88;4972934;28;20050;-78
2021/06/28 04:24:52;;;;;;;13.63;9.07;;;19.30;94.70;;;18.82;86.00;100303.66;4972789;28;20050;-77
2021/06/28 04:27:20;;;;;;;12.88;9.68;;;19.30;94.70;;;18.82;86.05;100306.41;4972631;28;20055;-77
2021/06/28 04:29:47;;;;;;;13.80;10.13;;;19.30;94.70;;;18.81;86.39;100300.06;4972893;28;20050;-77
2021/06/28 04:32:15;;;;;;;15.23;9.60;;;19.30;94.70;;;18.84;86.10;100305.06;4972849;28;20101;-77
2021/06/28 04:34:44;;;;;;;14.48;9.75;;;19.40;94.50;;;18.86;86.48;100300.16;4972771;28;20066;-77
2021/06/28 04:37:12;;;;;;;13.55;11.23;;;19.40;94.50;;;18.89;86.61;100298.84;4972631;28;20070;-77
2021/06/28 04:39:40;;;;;;;18.40;12.05;;;19.50;94.60;;;18.94;86.77;100298.91;4972442;28;20438;-77
2021/06/28 04:42:08;;;;;;;17.00;11.15;;;19.70;94.30;;;18.96;87.25;100299.50;4972639;28;20097;-78
2021/06/28 04:44:37;;;;;;;15.75;10.95;;;19.80;93.90;;;18.97;87.62;100303.97;4972543;28;20105;-78
2021/06/28 04:47:04;;;;;;;13.60;10.95;;;19.90;93.60;;;19.00;88.05;100300.72;4972167;28;20150;-78
2021/06/28 04:49:31;;;;;;;14.30;11.25;;;20.00;93.10;;;19.07;88.54;100306.06;4982814;28;20077;-78
2021/06/28 04:51:59;;;;;;;14.63;10.40;;;20.20;92.80;;;19.11;88.53;100313.63;4991502;28;20124;-78
2021/06/28 04:54:26;;;;;;;16.80;12.00;;;20.40;92.30;;;19.17;89.25;100313.72;4991928;28;20133;-78
2021/06/28 04:56:53;;;;;;;15.57;10.93;;;20.50;92.90;;;19.25;90.34;100313.34;4991362;28;20722;-78
2021/06/28 04:59:21;;;;;;;16.80;11.70;;;20.70;92.20;;;19.31;89.85;100317.84;4991188;28;20042;-78
2021/06/28 05:01:49;;;;;;;15.77;10.80;;;20.80;91.30;;;19.38;90.27;100313.03;4991144;28;20574;-78
2021/06/28 05:04:17;;;;;;;13.38;10.43;;;21.00;90.50;;;19.43;91.07;100315.84;4991614;28;20450;-80
2021/06/28 05:06:44;;;;;;;14.23;10.43;;;21.10;90.20;;;19.47;90.53;100300.47;4991527;28;20117;-78
2021/06/28 05:09:11;;;;;;;13.10;10.32;;;21.20;89.80;;;19.54;90.32;100311.38;5011020;28;20560;-79
2021/06/28 05:11:38;;;;;;;14.20;10.20;;;21.30;89.90;;;19.59;90.81;100303.19;5010854;28;20053;-79
2021/06/28 05:14:06;;;;;;;11.55;9.27;;;21.30;89.70;;;19.66;90.92;100297.47;5010997;28;20046;-79
2021/06/28 05:16:33;;;;;;;11.82;9.50;;;21.40;89.60;;;19.71;90.92;100294.81;4990505;28;20074;-79
2021/06/28 05:19:02;;;;;;;14.45;9.18;;;21.50;89.50;;;19.75;91.02;100292.44;4971907;28;20042;-78
2021/06/28 05:21:29;;;;;;;11.52;8.63;;;21.50;89.40;;;19.78;90.80;100292.75;4971789;28;20118;-78
2021/06/28 05:23:56;;;;;;;12.50;9.73;;;21.60;89.20;;;19.83;91.19;100289.22;4971700;28;20055;-78
2021/06/28 05:26:23;;;;;;;15.98;11.18;;;21.70;89.10;;;19.88;90.21;100290.16;4971392;28;20145;-79
2021/06/28 05:28:51;;;;;;;17.92;11.80;;;21.70;88.70;;;19.92;89.85;100285.78;4971668;28;20043;-78
2021/06/28 05:31:18;;;;;;;17.40;11.80;;;21.70;88.80;;;19.96;89.38;100282.53;4971556;28;20555;-78
2021/06/28 05:33:45;;;;;;;14.85;12.00;;;21.70;88.80;;;19.99;89.88;100285.63;4971427;28;20078;-78
2021/06/28 05:36:16;;;;;;;17.40;12.63;;;21.70;89.30;;;20.01;89.93;100274.31;4975067;28;20046;-79
2021/06/28 05:38:43;;;;;;;16.60;12.75;;;21.70;89.20;;;20.05;89.79;100286.56;4989524;28;20070;-78
2021/06/28 05:41:10;;;;;;;16.75;12.18;;;21.70;89.30;;;20.08;90.35;100272.22;4990675;28;20116;-78
2021/06/28 05:43:38;;;;;;;20.92;12.95;;;21.80;89.60;;;20.10;90.62;100281.09;4990609;28;20038;-78
2021/06/28 05:46:05;;;;;;;17.92;12.05;;;22.00;89.30;;;20.14;90.09;100271.19;4990600;28;20418;-78
2021/06/28 05:48:32;;;;;;;14.93;11.45;;;22.00;88.40;;;20.19;89.63;100278.72;4990624;28;20736;-77
2021/06/28 05:50:59;;;;;;;18.00;12.23;;;22.10;88.40;;;20.23;89.43;100277.13;4990763;28;20126;-78
2021/06/28 05:53:28;;;;;;;16.02;12.30;;;22.10;87.70;;;20.28;89.09;100274.44;4990870;28;20046;-77
2021/06/28 05:55:58;;;;;;;16.52;11.77;;;22.30;87.20;;;20.31;89.56;100272.00;4990290;28;20077;-77
2021/06/28 05:58:26;;;;;;;19.73;11.85;;;22.70;86.00;;;20.39;89.22;100256.06;4990594;28;20509;-77
2021/06/28 06:00:55;;;;;;;17.42;12.35;;;23.40;83.60;;;20.49;89.76;100256.22;4988907;28;20577;-78
2021/06/28 06:03:22;;;;;;;18.05;11.57;;;24.80;77.30;;;20.61;88.86;100258.88;4990572;28;20428;-78
2021/06/28 06:05:49;;;;;;;20.65;12.38;;;24.80;76.40;;;20.70;88.61;100263.69;4990243;28;20050;-78
2021/06/28 06:08:23;;;;;;;18.63;11.75;;;25.10;75.80;;;20.88;88.41;100269.97;4988748;28;20421;-78
2021/06/28 06:10:52;;;;;;;17.10;12.48;;;27.00;70.20;;;21.07;88.27;100265.75;4987992;28;20122;-78
2021/06/28 06:13:20;;;;;;;16.63;12.18;;;28.60;63.00;;;21.26;87.53;100265.38;4990063;28;20046;-79
2021/06/28 06:16:00;;;;;;;14.45;11.57;;;29.70;58.40;;;21.43;86.76;100265.28;4976061;28;20105;-81
2021/06/28 06:18:28;;;;;;;15.40;11.07;;;29.30;58.80;;;21.60;85.26;100262.41;4988267;28;20054;-79
2021/06/28 06:20:55;;;;;;;14.05;10.90;;;28.90;59.10;;;21.71;85.41;100261.41;4989383;28;20450;-78
2021/06/28 06:23:22;;;;;;;15.13;11.05;;;29.10;59.60;;;21.81;83.77;100255.91;4989854;28;20526;-79
2021/06/28 06:25:51;;;;;;;14.18;10.63;;;29.50;58.80;;;21.97;83.31;100264.34;4989740;28;20457;-80
2021/06/28 06:28:18;;;;;;;15.82;11.50;;;30.70;55.30;;;22.10;82.82;100257.50;4989317;28;20081;-77
2021/06/28 06:30:45;;;;;;;13.80;10.77;;;31.60;52.60;;;22.24;81.97;100261.47;4989278;28;20042;-79
2021/06/28 06:33:13;;;;;;;14.10;10.75;;;32.40;49.80;;;22.34;81.60;100275.41;4989846;28;20042;-79
2021/06/28 06:35:41;;;;;;;12.68;10.48;;;32.70;48.50;;;22.40;81.53;100270.75;4989733;28;20125;-79
2021/06/28 06:38:09;;;;;;;13.65;10.65;;;32.00;49.40;;;22.41;80.47;100278.78;4989374;28;20130;-81
2021/06/28 06:40:36;;;;;;;14.63;10.63;;;30.80;51.70;;;22.41;80.94;100273.25;4988749;28;20073;-81
2021/06/28 06:43:11;;;;;;;13.25;11.00;;;29.60;55.60;;;22.41;81.01;100280.75;4989528;28;20046;-81
2021/06/28 06:45:39;;;;;;;16.00;10.27;;;28.70;58.10;;;22.39;81.66;100282.91;4984013;28;20403;-79
2021/06/28 06:48:07;;;;;;;15.45;11.45;;;27.90;60.70;;;22.38;82.42;100281.28;4984045;28;20046;-80
2021/06/28 06:50:34;;;;;;;20.00;11.52;;;27.30;63.90;;;22.34;81.93;100285.69;4988477;28;20069;-79
2021/06/28 06:53:02;;;;;;;20.05;12.05;;;26.80;65.40;;;22.28;83.10;100286.75;4989126;28;20046;-79
2021/06/28 06:55:29;;;;;;;15.93;11.20;;;26.30;68.10;;;22.26;83.56;100284.25;4989017;28;20076;-80
2021/06/28 06:57:57;;;;;;;16.77;11.63;;;26.00;70.20;;;22.24;83.83;100281.72;4988924;28;20097;-79
2021/06/28 07:00:25;;;;;;;16.75;12.00;;;25.90;71.60;;;22.25;83.92;100282.56;4989025;28;20546;-79
2021/06/28 07:02:54;;;;;;;15.70;11.60;;;25.70;72.80;;;22.24;84.27;100278.94;4988905;28;20464;-79
2021/06/28 07:05:21;;;;;;;16.77;11.23;;;25.70;73.50;;;22.27;85.60;100285.09;4987971;28;20057;-79
2021/06/28 07:07:49;;;;;;;13.23;10.20;;;25.60;74.40;;;22.28;85.80;100281.22;4988914;28;20562;-80
2021/06/28 07:10:17;;;;;;;15.48;10.32;;;25.50;75.50;;;22.32;86.68;100285.13;4989257;28;20072;-80
2021/06/28 07:12:47;;;;;;;14.63;9.85;;;25.50;76.30;;;22.31;86.37;100281.50;4989328;28;20104;-79
2021/06/28 07:15:16;;;;;;;17.48;10.95;;;25.50;76.20;;;22.30;86.06;100279.84;4989301;28;20121;-80
2021/06/28 07:17:45;;;;;;;13.60;10.25;;;25.40;76.30;;;22.30;86.32;100282.59;4989094;28;20498;-80
2021/06/28 07:20:17;;;;;;;22.00;10.13;;;25.40;77.40;;;22.31;87.14;100280.66;4996866;28;20494;-80
2021/06/28 07:22:44;;;;;;;17.80;10.55;;;25.40;77.90;;;22.30;87.31;100282.59;4969695;28;20489;-80
2021/06/28 07:25:13;;;;;;;15.98;10.65;;;25.30;78.30;;;22.29;87.67;100282.88;4973563;28;20098;-80
2021/06/28 07:27:42;;;;;;;17.10;11.23;;;25.30;78.50;;;22.28;87.29;100273.72;4973417;28;20050;-80
2021/06/28 07:30:14;;;;;;;15.55;11.18;;;25.30;78.30;;;22.30;88.26;100279.00;4973501;28;20043;-80
2021/06/28 07:32:42;;;;;;;15.45;10.85;;;25.30;78.70;;;22.30;87.68;100284.56;4972372;28;20055;-80
2021/06/28 07:35:12;;;;;;;16.20;10.63;;;25.30;78.30;;;22.33;88.76;100284.00;4984650;28;20077;-80
2021/06/28 07:37:41;;;;;;;14.98;10.60;;;25.40;78.50;;;22.34;89.71;100285.69;4992130;28;20108;-79
2021/06/28 07:40:12;;;;;;;13.88;10.93;;;25.40;79.80;;;22.35;89.16;100290.09;4991193;28;20050;-79
2021/06/28 07:42:40;;;;;;;20.27;11.00;;;25.40;79.20;;;22.35;90.25;100287.34;4992743;28;20050;-79
2021/06/28 07:45:09;;;;;;;15.07;11.25;;;25.30;79.80;;;22.36;90.61;100289.84;4991764;28;20640;-79
2021/06/28 07:50:15;;;;;;;15.32;10.90;;;25.30;80.00;;;22.36;90.30;100289.03;5005639;28;20050;-80
2021/06/28 07:52:43;;;;;;;13.23;10.88;;;25.30;80.30;;;22.39;91.11;100291.25;4992819;28;20042;-80
2021/06/28 07:55:14;;;;;;;14.32;10.75;;;25.30;80.40;;;22.39;92.35;100285.69;4992521;28;20058;-79
2021/06/28 07:57:42;;;;;;;16.77;11.30;;;25.30;81.40;;;22.40;92.33;100290.16;4987711;28;20077;-79
2021/06/28 08:00:13;;;;;;;12.40;10.65;;;25.30;81.40;;;22.40;91.52;100284.59;4972748;28;20070;-78
2021/06/28 08:02:42;;;;;;;14.52;11.40;;;25.30;80.60;;;22.41;91.99;100278.78;4973303;28;20039;-80
2021/06/28 08:05:11;;;;;;;17.38;11.40;;;25.30;81.50;;;22.39;91.03;100280.16;4972618;28;20054;-79
2021/06/28 08:07:39;;;;;;;15.05;11.07;;;25.20;80.70;;;22.39;90.61;100288.47;4972642;28;20097;-79
2021/06/28 08:10:10;;;;;;;17.42;11.05;;;25.20;81.10;;;22.39;91.52;100288.47;4985426;28;20100;-79
2021/06/28 08:12:38;;;;;;;13.43;10.05;;;25.10;81.90;;;22.37;90.79;100279.59;4992205;28;20053;-79
2021/06/28 08:15:07;;;;;;;13.88;11.00;;;25.00;81.90;;;22.36;91.59;100269.63;4992345;28;20823;-79
2021/06/28 08:17:35;;;;;;;13.63;11.52;;;25.00;82.60;;;22.35;91.15;100273.47;4991621;28;20042;-79
2021/06/28 08:20:02;;;;;;;16.80;10.75;;;24.90;83.60;;;22.36;91.54;100275.16;4992154;28;20132;-79
2021/06/28 08:22:29;;;;;;;12.55;10.20;;;24.80;82.70;;;22.35;91.55;100279.03;4987760;28;20085;-80
2021/06/28 08:24:58;;;;;;;14.48;11.10;;;24.90;83.20;;;22.35;92.25;100274.34;4992162;28;20050;-81
2021/06/28 08:27:25;;;;;;;16.48;11.35;;;24.90;84.10;;;22.37;92.62;100274.03;4991554;28;20098;-81
2021/06/28 08:29:52;;;;;;;14.20;11.55;;;25.00;83.90;;;22.37;93.70;100274.03;4992098;28;20136;-81
2021/06/28 08:32:20;;;;;;;14.07;10.95;;;25.00;84.00;;;22.39;95.26;100275.47;4991869;28;20120;-81
2021/06/28 08:34:47;;;;;;;14.20;11.30;;;25.10;84.20;;;22.41;93.22;100269.66;4971128;28;20053;-81
2021/06/28 08:37:14;;;;;;;16.13;11.20;;;25.10;82.70;;;22.47;94.33;100267.75;4972096;28;20046;-80
2021/06/28 08:39:42;;;;;;;18.75;11.85;;;25.30;83.20;;;22.56;96.12;100272.50;4972281;28;20122;-81
2021/06/28 08:42:11;;;;;;;17.10;11.43;;;25.40;83.50;;;22.60;97.03;100270.84;4972436;28;20042;-81
2021/06/28 08:44:39;;;;;;;17.52;10.90;;;25.50;83.90;;;22.62;93.14;100268.63;4972350;28;20121;-81
2021/06/28 08:47:06;;;;;;;11.82;9.07;;;25.40;81.30;;;22.64;91.92;100258.09;4972103;28;20051;-80
2021/06/28 08:49:34;;;;;;;16.50;10.68;;;25.40;80.90;;;22.70;92.64;100256.19;4987010;28;20523;-80
2021/06/28 08:52:02;;;;;;;12.80;9.88;;;25.40;82.10;;;22.67;90.88;100248.38;5010085;28;20042;-80
2021/06/28 08:54:29;;;;;;;14.60;11.80;;;25.30;77.50;;;22.69;88.17;100245.34;5010897;28;20469;-80
2021/06/28 08:56:57;;;;;;;13.45;10.02;;;25.20;79.50;;;22.76;91.69;100245.94;5010557;28;20076;-80
2021/06/28 08:59:26;;;;;;;17.88;10.98;;;25.30;81.60;;;22.73;89.28;100255.66;4993334;28;20498;-81
2021/06/28 09:01:54;;;;;;;19.63;10.07;;;25.20;81.00;;;22.69;87.95;100250.88;5019127;28;20128;-80
2021/06/28 09:04:22;;;;;;;14.80;11.30;;;25.10;80.20;;;22.69;88.09;100260.03;5031100;28;20053;-80
2021/06/28 09:06:49;;;;;;;16.88;9.80;;;25.10;80.60;;;22.64;87.67;100252.53;5029339;28;20533;-80
2021/06/28 09:09:18;;;;;;;14.80;11.32;;;25.10;77.20;;;22.64;87.46;100255.31;5008382;28;20056;-80
2021/06/28 09:11:49;;;;;;;13.35;10.90;;;25.20;79.10;;;22.67;88.18;100261.44;5030827;28;20127;-79
2021/06/28 09:14:17;;;;;;;14.30;10.52;;;25.20;80.10;;;22.67;86.26;100248.38;5028576;28;20091;-80
2021/06/28 09:16:47;;;;;;;13.45;9.98;;;25.30;78.90;;;22.65;86.51;100256.97;4992865;28;20057;-80
2021/06/28 09:19:18;;;;;;;13.75;10.57;;;25.20;79.00;;;22.63;87.53;100267.50;5022516;28;20497;-79
2021/06/28 09:21:50;;;;;;;13.18;10.35;;;25.20;80.10;;;22.63;88.14;100284.16;5030303;28;20038;-80
2021/06/28 09:24:29;;;;;;;13.45;10.73;;;25.10;80.40;;;22.61;87.27;100288.31;5009855;28;20057;-81
2021/06/28 09:27:20;;;;;;;13.18;9.80;;;25.00;80.40;;;22.58;85.55;100286.94;5010354;28;20054;-80
2021/06/28 09:29:52;;;;;;;15.63;10.10;;;25.00;79.90;;;22.58;86.49;100294.38;5009306;28;20705;-80
2021/06/28 09:32:22;;;;;;;13.85;10.30;;;25.00;79.90;;;22.59;86.05;100299.66;5009500;28;20080;-81
2021/06/28 09:34:56;;;;;;;13.60;10.32;;;25.00;79.90;;;22.59;86.33;100305.22;4991945;28;20100;-80
2021/06/28 09:37:26;;;;;;;14.25;10.68;;;25.00;80.10;;;22.57;84.94;100301.88;5009060;28;20152;-81
2021/06/28 09:39:56;;;;;;;12.35;10.30;;;25.10;78.60;;;22.60;86.59;100301.34;5009213;28;20044;-81
2021/06/28 09:42:26;;;;;;;16.77;11.20;;;25.10;79.60;;;22.64;86.71;100291.38;5008695;28;20045;-80
2021/06/28 09:44:57;;;;;;;16.83;11.15;;;25.20;79.60;;;22.73;87.36;100283.38;5010378;28;20080;-80
2021/06/28 09:47:28;;;;;;;13.75;10.88;;;25.20;80.40;;;22.76;87.37;100284.78;5009668;28;20049;-81
2021/06/28 09:50:08;;;;;;;15.82;11.68;;;25.30;79.70;;;22.80;90.96;100277.56;5010251;28;20042;-80
2021/06/28 09:52:39;;;;;;;13.43;9.57;;;25.40;81.20;;;22.87;87.42;100280.09;4992217;28;20152;-80
2021/06/28 09:55:19;;;;;;;11.55;8.82;;;25.40;79.90;;;22.83;87.89;100283.41;5010259;28;20316;-81
2021/06/28 09:58:06;;;;;;;18.60;11.13;;;25.40;80.20;;;22.91;88.57;100281.22;5009794;28;20050;-79
2021/06/28 10:00:37;;;;;;;13.05;9.93;;;25.40;80.50;;;22.87;85.35;100278.16;5009430;28;20042;-80
2021/06/28 10:03:07;;;;;;;14.70;10.40;;;25.40;78.30;;;22.91;88.67;100279.28;5009927;28;20104;-83
2021/06/28 10:05:40;;;;;;;14.13;10.52;;;25.40;81.00;;;22.93;88.29;100271.50;5009631;28;20045;-83
2021/06/28 10:08:16;;;;;;;12.43;10.00;;;25.40;80.40;;;22.92;85.95;100269.81;5009698;28;20053;-82
2021/06/28 10:10:43;;;;;;;16.42;10.65;;;25.40;79.30;;;22.93;88.51;100265.13;5009716;28;20042;-83
2021/06/28 10:13:11;;;;;;;13.32;10.02;;;25.40;80.90;;;22.90;83.86;100266.50;5009900;28;20124;-83